createdAt,value
2018-08-13T00:01:56.024Z,5.35
2018-08-13T00:04:25.523Z,5.17
2018-08-13T00:06:55.197Z,5.20
2018-08-13T00:09:29.702Z,4.75
2018-08-13T00:11:58.557Z,4.87
2018-08-13T00:14:27.720Z,4.87
2018-08-13T00:16:56.565Z,5.50
2018-08-13T00:19:25.730Z,4.92
2018-08-13T00:21:54.589Z,4.97
2018-08-13T00:24:23.424Z,6.20
2018-08-13T00:26:52.513Z,5.22
2018-08-13T00:29:21.380Z,5.10
2018-08-13T00:31:50.231Z,5.33
2018-08-13T00:34:19.085Z,5.05
2018-08-13T00:36:47.911Z,5.00
2018-08-13T00:39:16.728Z,4.75
2018-08-13T00:41:45.589Z,5.05
2018-08-13T00:44:14.447Z,4.55
2018-08-13T00:46:43.317Z,4.70
2018-08-13T00:49:13.796Z,4.58
2018-08-13T00:51:42.616Z,4.65
2018-08-13T00:54:11.490Z,5.62
2018-08-13T00:56:40.314Z,5.15
2018-08-13T00:59:09.148Z,5.35
2018-08-13T01:01:38.093Z,5.37
2018-08-13T01:04:07.288Z,5.60
2018-08-13T01:06:36.130Z,5.47
2018-08-13T01:09:07.600Z,5.33
2018-08-13T01:11:36.652Z,5.90
2018-08-13T01:14:05.748Z,5.35
2018-08-13T01:16:34.555Z,5.65
2018-08-13T01:19:03.440Z,5.60
2018-08-13T01:21:32.331Z,5.70
2018-08-13T01:24:01.148Z,6.12
2018-08-13T01:26:30.322Z,5.92
2018-08-13T01:28:59.191Z,5.72
2018-08-13T01:31:28.043Z,6.20
2018-08-13T01:33:56.876Z,6.45
2018-08-13T01:36:25.772Z,7.17
2018-08-13T01:38:54.866Z,6.62
2018-08-13T01:41:23.736Z,6.53
2018-08-13T01:43:52.589Z,6.97
2018-08-13T01:46:22.013Z,6.55
2018-08-13T01:48:50.991Z,6.55
2018-08-13T01:51:19.827Z,6.80
2018-08-13T01:53:48.890Z,6.17
2018-08-13T01:56:17.974Z,6.60
2018-08-13T01:58:46.806Z,6.50
2018-08-13T02:01:15.671Z,6.50
2018-08-13T02:03:44.884Z,6.83
2018-08-13T02:06:13.735Z,6.75
2018-08-13T02:08:43.211Z,6.42
2018-08-13T02:11:12.587Z,6.50
2018-08-13T02:13:41.477Z,6.00
2018-08-13T02:16:10.331Z,6.35
2018-08-13T02:18:39.134Z,6.05
2018-08-13T02:21:07.970Z,5.47
2018-08-13T02:23:36.822Z,5.83
2018-08-13T02:26:05.638Z,5.80
2018-08-13T02:28:34.517Z,5.90
2018-08-13T02:31:03.935Z,6.30
2018-08-13T02:33:38.764Z,6.15
2018-08-13T02:36:07.581Z,6.30
2018-08-13T02:38:36.543Z,6.22
2018-08-13T02:41:05.401Z,6.30
2018-08-13T02:43:34.228Z,6.15
2018-08-13T02:46:03.089Z,6.80
2018-08-13T02:48:32.112Z,6.92
2018-08-13T02:51:00.949Z,6.72
2018-08-13T02:53:30.095Z,7.47
2018-08-13T02:56:05.298Z,7.17
2018-08-13T02:58:34.139Z,7.62
2018-08-13T03:01:03.338Z,7.10
2018-08-13T03:03:32.769Z,7.60
2018-08-13T03:06:02.140Z,6.95
2018-08-13T03:08:31.029Z,7.17
2018-08-13T03:10:59.905Z,7.37
2018-08-13T03:13:28.747Z,7.12
2018-08-13T03:15:57.784Z,7.70
2018-08-13T03:18:32.912Z,7.62
2018-08-13T03:21:02.041Z,8.05
2018-08-13T03:23:30.919Z,7.62
2018-08-13T03:25:59.847Z,7.90
2018-08-13T03:28:29.005Z,7.60
2018-08-13T03:30:57.863Z,7.50
2018-08-13T03:33:26.735Z,8.18
2018-08-13T03:35:55.810Z,8.08
2018-08-13T03:38:24.967Z,7.83
2018-08-13T03:40:53.823Z,7.78
2018-08-13T03:43:23.090Z,7.53
2018-08-13T03:45:51.947Z,7.65
2018-08-13T03:48:20.885Z,7.25
2018-08-13T03:50:50.050Z,7.62
2018-08-13T03:53:19.340Z,7.87
2018-08-13T03:55:48.201Z,8.05
2018-08-13T04:01:16.776Z,8.23
2018-08-13T04:03:45.854Z,8.18
2018-08-13T04:06:14.759Z,8.40
2018-08-13T04:08:43.634Z,8.50
2018-08-13T04:11:12.490Z,8.50
2018-08-13T04:13:41.388Z,8.70
2018-08-13T04:16:10.821Z,8.63
2018-08-13T04:18:39.671Z,9.30
2018-08-13T04:21:08.517Z,9.15
2018-08-13T04:23:37.607Z,7.92
2018-08-13T04:26:06.430Z,8.78
2018-08-13T04:28:36.987Z,9.33
2018-08-13T04:31:06.073Z,8.80
2018-08-13T04:33:34.899Z,8.70
2018-08-13T04:36:03.739Z,8.80
2018-08-13T04:38:32.570Z,9.03
2018-08-13T04:41:01.618Z,8.85
2018-08-13T04:43:30.796Z,9.05
2018-08-13T04:45:59.879Z,8.68
2018-08-13T04:48:28.926Z,8.43
2018-08-13T04:50:57.821Z,9.75
2018-08-13T04:53:26.707Z,9.05
2018-08-13T04:55:55.633Z,9.10
2018-08-13T04:58:28.280Z,9.38
2018-08-13T05:00:56.636Z,9.50
2018-08-13T05:03:25.469Z,9.65
2018-08-13T05:05:54.641Z,9.93
2018-08-13T05:08:23.763Z,9.93
2018-08-13T05:10:52.602Z,9.55
2018-08-13T05:13:21.450Z,10.75
2018-08-13T05:15:50.292Z,10.35
2018-08-13T05:18:19.114Z,9.93
2018-08-13T05:20:47.970Z,10.68
2018-08-13T05:23:17.734Z,10.08
2018-08-13T05:25:46.954Z,10.63
2018-08-13T05:28:15.801Z,10.45
2018-08-13T05:30:44.964Z,10.30
2018-08-13T05:33:13.853Z,10.15
2018-08-13T05:35:42.704Z,10.60
2018-08-13T05:38:11.549Z,9.90
2018-08-13T05:40:40.541Z,10.40
2018-08-13T05:43:09.718Z,10.18
2018-08-13T05:45:38.602Z,10.10
2018-08-13T05:48:07.456Z,9.28
2018-08-13T05:50:36.312Z,9.50
2018-08-13T05:53:05.189Z,9.95
2018-08-13T05:55:34.217Z,9.28
2018-08-13T05:58:03.375Z,10.03
2018-08-13T06:00:32.253Z,10.23
2018-08-13T06:03:00.782Z,10.43
2018-08-13T06:05:29.624Z,10.10
2018-08-13T06:07:58.740Z,9.40
2018-08-13T06:10:27.555Z,9.55
2018-08-13T06:12:56.390Z,9.70
2018-08-13T06:15:25.271Z,9.43
2018-08-13T06:17:54.351Z,9.70
2018-08-13T06:20:23.190Z,9.00
2018-08-13T06:22:52.069Z,9.98
2018-08-13T06:25:20.913Z,10.38
2018-08-13T06:27:49.791Z,9.80
2018-08-13T06:30:18.643Z,9.35
2018-08-13T06:32:47.482Z,8.70
2018-08-13T06:35:16.310Z,9.45
2018-08-13T06:37:45.308Z,9.03
2018-08-13T06:40:14.233Z,9.15
2018-08-13T06:42:43.402Z,8.83
2018-08-13T06:45:12.247Z,8.95
2018-08-13T06:47:41.573Z,9.30
2018-08-13T06:50:12.522Z,8.15
2018-08-13T06:52:41.420Z,8.90
2018-08-13T06:55:10.630Z,9.63
2018-08-13T06:57:39.457Z,8.80
2018-08-13T07:00:13.404Z,8.68
2018-08-13T07:02:42.319Z,8.93
2018-08-13T07:05:11.624Z,9.43
2018-08-13T07:07:41.047Z,9.90
2018-08-13T07:10:11.188Z,9.60
2018-08-13T07:12:41.790Z,9.78
2018-08-13T07:15:11.075Z,9.10
2018-08-13T07:17:40.343Z,9.00
2018-08-13T07:20:11.521Z,9.03
2018-08-13T07:22:40.361Z,9.20
2018-08-13T07:25:10.096Z,9.20
2018-08-13T07:27:39.737Z,9.20
2018-08-13T07:30:11.584Z,10.20
2018-08-13T07:32:40.921Z,9.83
2018-08-13T07:35:09.918Z,9.20
2018-08-13T07:37:38.754Z,9.63
2018-08-13T07:40:10.708Z,9.13
2018-08-13T07:42:39.888Z,9.78
2018-08-13T07:45:09.174Z,9.00
2018-08-13T07:47:38.342Z,8.10
2018-08-13T07:50:09.152Z,7.55
2018-08-13T07:52:38.004Z,7.75
2018-08-13T07:55:07.056Z,7.33
2018-08-13T07:57:36.302Z,7.50
2018-08-13T08:00:07.048Z,7.78
2018-08-13T08:02:36.083Z,7.50
2018-08-13T08:05:05.807Z,7.70
2018-08-13T08:07:35.151Z,6.62
2018-08-13T08:10:05.683Z,6.40
2018-08-13T08:12:34.786Z,6.10
2018-08-13T08:15:04.513Z,5.83
2018-08-13T08:17:33.413Z,6.20
2018-08-13T08:20:02.571Z,5.58
2018-08-13T08:22:31.451Z,5.60
2018-08-13T08:25:00.897Z,6.25
2018-08-13T08:27:29.767Z,6.17
2018-08-13T08:29:58.607Z,5.60
2018-08-13T08:32:27.440Z,6.03
2018-08-13T08:34:56.330Z,5.78
2018-08-13T08:37:25.175Z,5.20
2018-08-13T08:39:54.006Z,3.98
2018-08-13T08:42:22.856Z,2.75
2018-08-13T08:44:51.732Z,2.85
2018-08-13T08:47:20.558Z,2.80
2018-08-13T08:49:49.458Z,2.90
2018-08-13T08:52:18.279Z,3.10
2018-08-13T08:54:47.163Z,2.98
2018-08-13T08:57:16.337Z,2.62
2018-08-13T08:59:45.209Z,2.92
2018-08-13T09:02:13.794Z,3.07
2018-08-13T09:04:42.857Z,3.10
2018-08-13T09:07:11.714Z,2.75
2018-08-13T09:09:40.553Z,3.05
2018-08-13T09:12:09.632Z,2.80
2018-08-13T09:14:38.468Z,2.77
2018-08-13T09:17:07.631Z,3.10
2018-08-13T09:19:47.689Z,2.40
2018-08-13T09:22:28.044Z,2.80
2018-08-13T09:25:08.192Z,2.83
2018-08-13T09:27:48.459Z,2.80
2018-08-13T09:30:28.611Z,3.20
2018-08-13T09:33:08.929Z,3.00
2018-08-13T09:35:37.958Z,2.75
2018-08-13T09:38:06.815Z,2.98
2018-08-13T09:40:35.669Z,2.72
2018-08-13T09:43:04.901Z,2.90
2018-08-13T09:45:34.104Z,3.02
2018-08-13T09:48:03.027Z,3.25
2018-08-13T09:50:32.034Z,3.40
2018-08-13T09:53:00.888Z,3.40
2018-08-13T09:55:30.052Z,4.00
2018-08-13T09:57:58.956Z,4.22
2018-08-13T10:00:33.463Z,4.80
2018-08-13T10:03:02.016Z,4.77
2018-08-13T10:05:30.876Z,4.80
2018-08-13T10:07:59.741Z,5.30
2018-08-13T10:10:28.626Z,5.03
2018-08-13T10:12:57.782Z,4.95
2018-08-13T10:15:26.748Z,5.55
2018-08-13T10:17:55.617Z,5.60
2018-08-13T10:20:24.597Z,5.67
2018-08-13T10:22:53.484Z,5.72
2018-08-13T10:25:22.327Z,5.37
2018-08-13T10:27:51.171Z,5.80
2018-08-13T10:30:20.021Z,4.90
2018-08-13T10:32:48.858Z,4.78
2018-08-13T10:35:17.753Z,4.42
2018-08-13T10:37:46.954Z,3.42
2018-08-13T10:40:17.815Z,4.70
2018-08-13T10:42:47.417Z,5.00
2018-08-13T10:45:16.539Z,4.33
2018-08-13T10:47:45.989Z,4.20
2018-08-13T10:50:15.205Z,3.30
2018-08-13T10:52:44.081Z,3.42
2018-08-13T10:55:14.027Z,2.60
2018-08-13T10:57:43.155Z,3.20
2018-08-13T11:00:13.524Z,3.90
2018-08-13T11:02:42.162Z,3.60
2018-08-13T11:05:12.507Z,3.83
2018-08-13T11:07:42.738Z,4.67
2018-08-13T11:10:14.580Z,3.80
2018-08-13T11:12:43.637Z,3.37
2018-08-13T11:15:17.642Z,3.65
2018-08-13T11:17:46.715Z,2.85
2018-08-13T11:20:16.407Z,2.80
2018-08-13T11:22:45.399Z,2.70
2018-08-13T11:25:16.564Z,2.40
2018-08-13T11:27:45.847Z,0.90
2018-08-13T11:30:16.340Z,0.80
2018-08-13T11:32:45.419Z,0.90
2018-08-13T11:35:15.240Z,1.40
2018-08-13T11:37:44.410Z,1.27
2018-08-13T11:40:15.198Z,1.20
2018-08-13T11:42:44.414Z,1.67
2018-08-13T11:45:13.260Z,1.80
2018-08-13T11:47:42.733Z,1.52
2018-08-13T11:50:15.646Z,1.77
2018-08-13T11:52:45.951Z,2.12
2018-08-13T11:55:15.042Z,2.33
2018-08-13T11:57:43.884Z,2.65
2018-08-13T12:00:13.387Z,2.52
2018-08-13T12:02:42.037Z,2.73
2018-08-13T12:05:12.592Z,3.15
2018-08-13T12:07:42.014Z,2.92
2018-08-13T12:10:11.861Z,3.10
2018-08-13T12:12:41.844Z,3.22
2018-08-13T12:15:11.652Z,3.25
2018-08-13T12:17:41.173Z,3.60
2018-08-13T12:20:13.546Z,3.15
2018-08-13T12:22:43.862Z,3.67
2018-08-13T12:25:16.869Z,4.17
2018-08-13T12:27:45.696Z,4.30
2018-08-13T12:30:14.893Z,4.10
2018-08-13T12:32:43.755Z,4.10
2018-08-13T12:35:12.885Z,4.42
2018-08-13T12:37:42.068Z,4.03
2018-08-13T12:40:11.142Z,4.30
2018-08-13T12:42:40.548Z,3.70
2018-08-13T12:45:12.143Z,4.30
2018-08-13T12:47:41.298Z,4.15
2018-08-13T12:50:12.137Z,4.33
2018-08-13T12:52:41.383Z,4.80
2018-08-13T12:55:10.961Z,4.45
2018-08-13T12:57:39.976Z,4.67
2018-08-13T13:00:11.086Z,5.00
2018-08-13T13:02:40.628Z,5.23
2018-08-13T13:05:10.837Z,5.70
2018-08-13T13:07:39.812Z,5.25
2018-08-13T13:10:11.400Z,5.75
2018-08-13T13:12:41.640Z,5.20
2018-08-13T13:15:14.199Z,6.30
2018-08-13T13:17:43.055Z,5.62
2018-08-13T13:20:16.634Z,5.47
2018-08-13T13:22:45.875Z,5.08
2018-08-13T13:25:15.062Z,4.97
2018-08-13T13:27:43.909Z,4.28
2018-08-13T13:30:14.521Z,4.42
2018-08-13T13:32:43.845Z,3.77
2018-08-13T13:35:14.254Z,4.00
2018-08-13T13:37:43.235Z,3.50
2018-08-13T13:40:14.559Z,2.95
2018-08-13T13:42:43.671Z,2.87
2018-08-13T13:45:13.225Z,3.27
2018-08-13T13:47:42.317Z,3.60
2018-08-13T13:50:13.483Z,3.17
2018-08-13T13:52:42.880Z,3.95
2018-08-13T13:55:11.888Z,3.80
2018-08-13T13:57:40.775Z,4.20
2018-08-13T14:00:16.801Z,3.90
2018-08-13T14:02:47.365Z,4.08
2018-08-13T14:05:16.222Z,5.37
2018-08-13T14:07:45.153Z,4.37
2018-08-13T14:10:16.836Z,4.00
2018-08-13T14:12:46.235Z,4.50
2018-08-13T14:15:17.332Z,4.40
2018-08-13T14:17:46.320Z,4.47
2018-08-13T14:20:15.359Z,4.00
2018-08-13T14:22:44.273Z,3.98
2018-08-13T14:25:14.071Z,4.05
2018-08-13T14:27:42.912Z,4.30
2018-08-13T14:30:14.946Z,4.78
2018-08-13T14:32:44.134Z,5.00
2018-08-13T14:35:13.339Z,5.12
2018-08-13T14:37:42.462Z,5.33
2018-08-13T14:40:12.350Z,4.60
2018-08-13T14:42:41.671Z,5.37
2018-08-13T14:45:12.478Z,5.45
2018-08-13T14:47:43.354Z,4.70
2018-08-13T14:50:12.745Z,4.00
2018-08-13T14:52:44.302Z,4.00
2018-08-13T14:55:15.367Z,3.58
2018-08-13T14:57:44.191Z,3.52
2018-08-13T15:00:18.097Z,3.75
2018-08-13T15:02:47.147Z,2.77
2018-08-13T15:05:16.294Z,2.52
2018-08-13T15:07:45.141Z,2.67
2018-08-13T15:10:16.067Z,3.15
2018-08-13T15:12:45.300Z,3.47
2018-08-13T15:15:14.349Z,3.95
2018-08-13T15:17:43.281Z,4.45
2018-08-13T15:20:16.541Z,3.30
2018-08-13T15:22:46.009Z,1.22
2018-08-13T15:25:14.966Z,1.30
2018-08-13T15:27:43.944Z,2.35
2018-08-13T15:30:15.543Z,2.42
2018-08-13T15:32:45.580Z,2.45
2018-08-13T15:35:14.476Z,2.80
2018-08-13T15:37:44.610Z,2.80
2018-08-13T15:40:13.841Z,2.58
2018-08-13T15:42:42.749Z,2.85
2018-08-13T15:45:14.450Z,2.72
2018-08-13T15:47:43.366Z,2.42
2018-08-13T15:50:14.046Z,2.35
2018-08-13T15:52:43.852Z,2.20
2018-08-13T15:55:13.628Z,2.55
2018-08-13T15:57:43.077Z,2.90
2018-08-13T16:00:15.177Z,2.33
2018-08-13T16:02:43.900Z,2.37
2018-08-13T16:05:12.981Z,1.70
2018-08-13T16:07:41.897Z,1.95
2018-08-13T16:10:12.623Z,2.10
2018-08-13T16:12:42.027Z,2.20
2018-08-13T16:15:11.070Z,2.08
2018-08-13T16:17:41.258Z,2.47
2018-08-13T16:20:14.647Z,2.25
2018-08-13T16:22:44.669Z,2.30
2018-08-13T16:25:13.952Z,2.27
2018-08-13T16:27:43.085Z,2.17
2018-08-13T16:30:21.785Z,2.17
2018-08-13T16:32:50.865Z,1.85
2018-08-13T16:35:20.393Z,1.70
2018-08-13T16:37:49.539Z,1.95
2018-08-13T16:40:19.116Z,1.92
2018-08-13T16:42:48.251Z,2.05
2018-08-13T16:45:18.180Z,2.25
2018-08-13T16:47:47.062Z,2.37
2018-08-13T16:50:22.230Z,1.50
2018-08-13T16:52:52.036Z,2.37
2018-08-13T16:55:20.944Z,2.70
2018-08-13T16:57:50.626Z,2.37
2018-08-13T17:00:21.321Z,2.90
2018-08-13T17:02:49.998Z,3.03
2018-08-13T17:05:19.068Z,2.62
2018-08-13T17:07:47.973Z,2.70
2018-08-13T17:10:19.449Z,3.08
2018-08-13T17:12:48.890Z,3.25
2018-08-13T17:15:17.767Z,3.25
2018-08-13T17:17:48.392Z,3.58
2018-08-13T17:20:22.108Z,3.75
2018-08-13T17:22:51.066Z,3.87
2018-08-13T17:25:19.936Z,3.98
2018-08-13T17:27:49.126Z,3.42
2018-08-13T17:30:20.526Z,3.45
2018-08-13T17:32:50.597Z,3.33
2018-08-13T17:35:25.164Z,3.67
2018-08-13T17:37:54.055Z,3.98
2018-08-13T17:40:23.865Z,3.80
2018-08-13T17:42:53.989Z,3.52
2018-08-13T17:45:23.424Z,3.65
2018-08-13T17:47:52.292Z,4.25
2018-08-13T17:50:21.692Z,5.08
2018-08-13T17:52:50.569Z,5.25
2018-08-13T17:55:19.611Z,5.70
2018-08-13T17:57:48.493Z,5.15
2018-08-13T18:00:18.735Z,5.00
2018-08-13T18:02:47.351Z,6.03
2018-08-13T18:05:18.381Z,5.45
2018-08-13T18:07:48.276Z,6.00
2018-08-13T18:10:26.681Z,6.05
2018-08-13T18:12:56.837Z,6.22
2018-08-13T18:15:25.757Z,5.40
2018-08-13T18:17:54.845Z,6.15
2018-08-13T18:20:23.728Z,5.90
2018-08-13T18:22:52.939Z,5.37
2018-08-13T18:25:21.860Z,5.12
2018-08-13T18:27:51.368Z,5.30
2018-08-13T18:30:22.732Z,5.28
2018-08-13T18:32:52.085Z,4.78
2018-08-13T18:35:21.228Z,5.33
2018-08-13T18:37:50.127Z,4.72
2018-08-13T18:40:50.602Z,5.17
2018-08-13T18:43:19.489Z,4.60
2018-08-13T18:45:49.128Z,5.05
2018-08-13T18:48:18.264Z,5.65
2018-08-13T18:50:48.619Z,5.20
2018-08-13T18:53:18.101Z,5.92
2018-08-13T18:55:48.080Z,5.83
2018-08-13T18:58:16.996Z,5.62
2018-08-13T19:00:50.923Z,5.60
2018-08-13T19:03:19.995Z,6.03
2018-08-13T19:05:48.895Z,6.45
2018-08-13T19:08:17.794Z,6.28
2018-08-13T19:10:46.796Z,6.03
2018-08-13T19:13:15.739Z,5.95
2018-08-13T19:15:44.665Z,6.22
2018-08-13T19:18:13.559Z,6.03
2018-08-13T19:20:42.726Z,6.08
2018-08-13T19:23:11.811Z,6.10
2018-08-13T19:25:40.709Z,5.90
2018-08-13T19:28:09.618Z,6.20
2018-08-13T19:30:38.863Z,6.78
2018-08-13T19:33:07.767Z,6.30
2018-08-13T19:35:36.625Z,7.00
2018-08-13T19:38:06.967Z,6.17
2018-08-13T19:40:35.839Z,6.42
2018-08-13T19:43:04.750Z,6.22
2018-08-13T19:45:33.814Z,6.67
2018-08-13T19:48:03.047Z,6.92
2018-08-13T19:50:31.963Z,6.28
2018-08-13T19:53:01.349Z,5.90
2018-08-13T19:55:30.230Z,6.80
2018-08-13T19:57:59.291Z,6.58
2018-08-13T20:00:29.383Z,6.40
2018-08-13T20:02:57.955Z,6.47
2018-08-13T20:05:28.159Z,6.25
2018-08-13T20:07:57.197Z,6.55
2018-08-13T20:10:26.345Z,7.40
2018-08-13T20:12:55.187Z,6.53
2018-08-13T20:15:24.051Z,6.78
2018-08-13T20:17:52.883Z,6.50
2018-08-13T20:20:22.124Z,6.87
2018-08-13T20:22:51.559Z,7.37
2018-08-13T20:25:21.081Z,7.47
2018-08-13T20:27:50.617Z,7.22
2018-08-13T20:30:21.057Z,6.83
2018-08-13T20:32:51.446Z,7.10
2018-08-13T20:35:20.798Z,6.62
2018-08-13T20:37:49.737Z,6.97
2018-08-13T20:40:20.649Z,6.37
2018-08-13T20:42:50.268Z,7.08
2018-08-13T20:45:20.823Z,7.37
2018-08-13T20:47:49.875Z,6.78
2018-08-13T20:50:24.522Z,6.75
2018-08-13T20:52:54.104Z,6.92
2018-08-13T20:55:25.485Z,6.58
2018-08-13T20:57:54.376Z,6.90
2018-08-13T21:00:24.844Z,6.30
2018-08-13T21:02:53.974Z,6.47
2018-08-13T21:05:22.853Z,7.30
2018-08-13T21:07:52.281Z,6.92
2018-08-13T21:10:22.619Z,6.58
2018-08-13T21:12:51.656Z,6.95
2018-08-13T21:15:20.660Z,7.45
2018-08-13T21:17:49.535Z,8.58
2018-08-13T21:20:19.751Z,8.63
2018-08-13T21:22:48.676Z,8.45
2018-08-13T21:25:17.678Z,8.78
2018-08-13T21:27:46.982Z,7.95
2018-08-13T21:30:16.306Z,8.35
2018-08-13T21:32:45.764Z,7.55
2018-08-13T21:35:17.788Z,7.80
2018-08-13T21:37:47.393Z,7.75
2018-08-13T21:40:16.348Z,9.23
2018-08-13T21:42:45.603Z,8.78
2018-08-13T21:45:14.664Z,9.48
2018-08-13T21:47:43.556Z,8.68
2018-08-13T21:50:15.862Z,9.08
2018-08-13T21:52:45.309Z,8.58
2018-08-13T21:55:14.427Z,9.13
2018-08-13T21:57:43.301Z,8.00
2018-08-13T22:00:19.907Z,7.80
2018-08-13T22:02:48.977Z,7.40
2018-08-13T22:05:17.850Z,6.72
2018-08-13T22:07:47.025Z,6.10
2018-08-13T22:10:15.980Z,5.95
2018-08-13T22:12:44.851Z,6.90
2018-08-13T22:15:23.822Z,6.00
2018-08-13T22:17:52.964Z,5.83
2018-08-13T22:20:22.148Z,5.20
2018-08-13T22:22:51.060Z,5.33
2018-08-13T22:25:22.889Z,5.00
2018-08-13T22:27:52.169Z,4.90
2018-08-13T22:30:21.194Z,5.28
2018-08-13T22:32:50.099Z,5.33
2018-08-13T22:35:18.902Z,4.90
2018-08-13T22:37:47.756Z,5.25
2018-08-13T22:40:18.436Z,5.20
2018-08-13T22:42:47.547Z,4.83
2018-08-13T22:45:20.714Z,5.33
2018-08-13T22:47:49.608Z,5.00
2018-08-13T22:50:18.468Z,4.95
2018-08-13T22:52:47.347Z,5.30
2018-08-13T22:55:17.755Z,4.65
2018-08-13T22:57:46.671Z,4.85
2018-08-13T23:00:16.615Z,4.10
2018-08-13T23:02:46.231Z,3.60
2018-08-13T23:05:16.755Z,4.42
2018-08-13T23:07:45.602Z,3.70
2018-08-13T23:10:19.076Z,3.77
2018-08-13T23:12:49.410Z,3.37
2018-08-13T23:15:18.485Z,3.40
2018-08-13T23:17:47.465Z,3.15
2018-08-13T23:20:22.036Z,3.17
2018-08-13T23:22:55.053Z,2.90
2018-08-13T23:25:23.938Z,3.05
2018-08-13T23:27:53.900Z,2.67
2018-08-13T23:30:22.982Z,2.40
2018-08-13T23:32:53.270Z,2.60
2018-08-13T23:35:23.068Z,2.50
2018-08-13T23:37:52.534Z,2.42
2018-08-13T23:40:21.661Z,2.80
2018-08-13T23:42:50.816Z,2.20
2018-08-13T23:45:23.490Z,2.10
2018-08-13T23:47:52.351Z,2.40
2018-08-13T23:50:22.377Z,2.22
2018-08-13T23:52:52.513Z,2.25
2018-08-13T23:55:24.745Z,2.42
2018-08-13T23:57:53.803Z,2.17
